
<gpx xmlns="http://www.topografix.com/GPX/1/1" xmlns:gpxx="http://www.garmin.com/xmlschemas/GpxExtensions/v3" xmlns:xsi="http://www.w3.org/2001/XMLSchema-instance" version="1.1" creator="Adze - http://kobotsw.com/apps/adze" xsi:schemaLocation="http://www.topografix.com/GPX/1/1 http://www.topografix.com/GPX/1/1/gpx.xsd http://www.garmin.com/xmlschemas/GpxExtensions/v3 http://www.garmin.com/xmlschemas/GpxExtensionsv3.xsd">
    <metadata>
        <name>Untitled Document</name>
        <link href="http://www.garmin.com"></link>
        <time>2018-02-04T08:40:38.879Z</time>
    </metadata>
    <wpt lon="100.974978" lat="12.905597">
        <ele>74.000000</ele>
        <time>2016-06-24T08:38:17Z</time>
        <name>Horseshoe Point</name>
        <sym>Lodging</sym>
        <extensions>
            <gpxx:WaypointExtension xmlns:gpxx="http://www.garmin.com/xmlschemas/GpxExtensions/v3">
                <gpxx:DisplayMode>SymbolAndName</gpxx:DisplayMode>
            </gpxx:WaypointExtension>
        </extensions>
    </wpt>
    <wpt lon="100.970966" lat="12.869131">
        <ele>40.000000</ele>
        <time>2016-06-25T08:34:18Z</time>
        <name>Water Saturday</name>
        <sym>Drinking Water</sym>
        <extensions>
            <gpxx:WaypointExtension xmlns:gpxx="http://www.garmin.com/xmlschemas/GpxExtensions/v3">
                <gpxx:DisplayMode>SymbolOnly</gpxx:DisplayMode>
            </gpxx:WaypointExtension>
        </extensions>
    </wpt>
    <trk>
        <name>Saturday</name>
        <extensions>
            <gpxx:TrackExtension xmlns:gpxx="http://www.garmin.com/xmlschemas/GpxExtensions/v3">
                <gpxx:DisplayColor>Red</gpxx:DisplayColor>
            </gpxx:TrackExtension>
        </extensions>
        <trkseg>
            <trkpt lon="100.974653" lat="12.905858">
                <ele>91.460000</ele>
                <time>2016-06-25T06:04:52Z</time>
            </trkpt>
            <trkpt lon="100.974358" lat="12.906059">
                <ele>85.690000</ele>
                <time>2016-06-25T06:05:08Z</time>
            </trkpt>
            <trkpt lon="100.973977" lat="12.904666">
                <ele>77.520000</ele>
                <time>2016-06-25T06:05:40Z</time>
            </trkpt>
            <trkpt lon="100.973048" lat="12.904553">
                <ele>76.560000</ele>
                <time>2016-06-25T06:06:02Z</time>
            </trkpt>
            <trkpt lon="100.972939" lat="12.904477">
                <ele>76.560000</ele>
                <time>2016-06-25T06:06:07Z</time>
            </trkpt>
            <trkpt lon="100.972962" lat="12.904256">
                <ele>75.600000</ele>
                <time>2016-06-25T06:06:12Z</time>
            </trkpt>
            <trkpt lon="100.972886" lat="12.904081">
                <ele>76.080000</ele>
                <time>2016-06-25T06:06:16Z</time>
            </trkpt>
            <trkpt lon="100.972793" lat="12.903875">
                <ele>75.120000</ele>
                <time>2016-06-25T06:06:21Z</time>
            </trkpt>
            <trkpt lon="100.972940" lat="12.903304">
                <ele>72.240000</ele>
                <time>2016-06-25T06:06:34Z</time>
            </trkpt>
            <trkpt lon="100.973054" lat="12.903250">
                <ele>71.270000</ele>
                <time>2016-06-25T06:06:39Z</time>
            </trkpt>
            <trkpt lon="100.973178" lat="12.903031">
                <ele>70.310000</ele>
                <time>2016-06-25T06:06:51Z</time>
            </trkpt>
            <trkpt lon="100.973907" lat="12.902585">
                <ele>68.390000</ele>
                <time>2016-06-25T06:07:20Z</time>
            </trkpt>
            <trkpt lon="100.974039" lat="12.902254">
                <ele>67.910000</ele>
                <time>2016-06-25T06:07:35Z</time>
            </trkpt>
            <trkpt lon="100.974143" lat="12.902240">
                <ele>67.430000</ele>
                <time>2016-06-25T06:07:40Z</time>
            </trkpt>
            <trkpt lon="100.974777" lat="12.902338">
                <ele>67.910000</ele>
                <time>2016-06-25T06:07:57Z</time>
            </trkpt>
            <trkpt lon="100.975345" lat="12.902205">
                <ele>66.950000</ele>
                <time>2016-06-25T06:08:11Z</time>
            </trkpt>
            <trkpt lon="100.975869" lat="12.902260">
                <ele>67.910000</ele>
                <time>2016-06-25T06:08:25Z</time>
            </trkpt>
            <trkpt lon="100.977462" lat="12.902734">
                <ele>71.760000</ele>
                <time>2016-06-25T06:09:14Z</time>
            </trkpt>
            <trkpt lon="100.977567" lat="12.902764">
                <ele>71.270000</ele>
                <time>2016-06-25T06:09:28Z</time>
            </trkpt>
            <trkpt lon="100.976764" lat="12.902352">
                <ele>68.870000</ele>
                <time>2016-06-25T06:10:01Z</time>
            </trkpt>
            <trkpt lon="100.976595" lat="12.901727">
                <ele>67.430000</ele>
                <time>2016-06-25T06:10:18Z</time>
            </trkpt>
            <trkpt lon="100.976601" lat="12.901265">
                <ele>65.990000</ele>
                <time>2016-06-25T06:10:32Z</time>
            </trkpt>
            <trkpt lon="100.976746" lat="12.901028">
                <ele>65.030000</ele>
                <time>2016-06-25T06:10:43Z</time>
            </trkpt>
            <trkpt lon="100.977788" lat="12.898992">
                <ele>64.070000</ele>
                <time>2016-06-25T06:11:57Z</time>
            </trkpt>
            <trkpt lon="100.978562" lat="12.896798">
                <ele>61.660000</ele>
                <time>2016-06-25T06:13:05Z</time>
            </trkpt>
            <trkpt lon="100.980679" lat="12.897052">
                <ele>61.180000</ele>
                <time>2016-06-25T06:14:12Z</time>
            </trkpt>
            <trkpt lon="100.981273" lat="12.896833">
                <ele>61.180000</ele>
                <time>2016-06-25T06:14:30Z</time>
            </trkpt>
            <trkpt lon="100.981801" lat="12.896448">
                <ele>62.140000</ele>
                <time>2016-06-25T06:14:47Z</time>
            </trkpt>
            <trkpt lon="100.983215" lat="12.895611">
                <ele>64.550000</ele>
                <time>2016-06-25T06:15:26Z</time>
            </trkpt>
            <trkpt lon="100.984012" lat="12.895587">
                <ele>65.030000</ele>
                <time>2016-06-25T06:15:44Z</time>
            </trkpt>
            <trkpt lon="100.985356" lat="12.896390">
                <ele>66.950000</ele>
                <time>2016-06-25T06:16:21Z</time>
            </trkpt>
            <trkpt lon="100.985396" lat="12.896397">
                <ele>66.950000</ele>
                <time>2016-06-25T06:16:24Z</time>
            </trkpt>
            <trkpt lon="100.985403" lat="12.896058">
                <ele>69.350000</ele>
                <time>2016-06-25T06:16:40Z</time>
            </trkpt>
            <trkpt lon="100.985278" lat="12.895418">
                <ele>67.430000</ele>
                <time>2016-06-25T06:16:56Z</time>
            </trkpt>
            <trkpt lon="100.985716" lat="12.895337">
                <ele>65.510000</ele>
                <time>2016-06-25T06:17:09Z</time>
            </trkpt>
            <trkpt lon="100.986010" lat="12.895392">
                <ele>64.070000</ele>
                <time>2016-06-25T06:17:36Z</time>
            </trkpt>
            <trkpt lon="100.986338" lat="12.896547">
                <ele>67.910000</ele>
                <time>2016-06-25T06:18:48Z</time>
            </trkpt>
            <trkpt lon="100.986947" lat="12.898701">
                <ele>70.790000</ele>
                <time>2016-06-25T06:20:11Z</time>
            </trkpt>
            <trkpt lon="100.987220" lat="12.899637">
                <ele>71.270000</ele>
                <time>2016-06-25T06:20:54Z</time>
            </trkpt>
            <trkpt lon="100.988237" lat="12.899462">
                <ele>68.390000</ele>
                <time>2016-06-25T06:21:54Z</time>
            </trkpt>
            <trkpt lon="100.988660" lat="12.899072">
                <ele>67.910000</ele>
                <time>2016-06-25T06:25:59Z</time>
            </trkpt>
            <trkpt lon="100.989069" lat="12.898885">
                <ele>65.990000</ele>
                <time>2016-06-25T06:26:12Z</time>
            </trkpt>
            <trkpt lon="100.990661" lat="12.899547">
                <ele>68.390000</ele>
                <time>2016-06-25T06:26:56Z</time>
            </trkpt>
            <trkpt lon="100.991372" lat="12.899504">
                <ele>67.910000</ele>
                <time>2016-06-25T06:27:12Z</time>
            </trkpt>
            <trkpt lon="100.991885" lat="12.899281">
                <ele>67.910000</ele>
                <time>2016-06-25T06:27:27Z</time>
            </trkpt>
            <trkpt lon="100.992099" lat="12.899026">
                <ele>69.830000</ele>
                <time>2016-06-25T06:27:38Z</time>
            </trkpt>
            <trkpt lon="100.992367" lat="12.898703">
                <ele>69.350000</ele>
                <time>2016-06-25T06:27:50Z</time>
            </trkpt>
            <trkpt lon="100.993452" lat="12.898692">
                <ele>69.350000</ele>
                <time>2016-06-25T06:28:18Z</time>
            </trkpt>
            <trkpt lon="100.994935" lat="12.898399">
                <ele>72.240000</ele>
                <time>2016-06-25T06:29:02Z</time>
            </trkpt>
            <trkpt lon="100.994974" lat="12.898916">
                <ele>72.720000</ele>
                <time>2016-06-25T06:29:31Z</time>
            </trkpt>
            <trkpt lon="100.995343" lat="12.899756">
                <ele>73.680000</ele>
                <time>2016-06-25T06:31:20Z</time>
            </trkpt>
            <trkpt lon="100.995750" lat="12.899938">
                <ele>74.160000</ele>
                <time>2016-06-25T06:32:16Z</time>
            </trkpt>
            <trkpt lon="100.995963" lat="12.899854">
                <ele>75.120000</ele>
                <time>2016-06-25T06:32:50Z</time>
            </trkpt>
            <trkpt lon="100.995975" lat="12.899977">
                <ele>75.600000</ele>
                <time>2016-06-25T06:33:16Z</time>
            </trkpt>
            <trkpt lon="100.995901" lat="12.900124">
                <ele>75.600000</ele>
                <time>2016-06-25T06:33:40Z</time>
            </trkpt>
            <trkpt lon="100.996299" lat="12.900483">
                <ele>75.120000</ele>
                <time>2016-06-25T06:34:24Z</time>
            </trkpt>
            <trkpt lon="100.996619" lat="12.900863">
                <ele>76.080000</ele>
                <time>2016-06-25T06:34:42Z</time>
            </trkpt>
            <trkpt lon="100.997032" lat="12.901052">
                <ele>77.040000</ele>
                <time>2016-06-25T06:34:57Z</time>
            </trkpt>
            <trkpt lon="100.997539" lat="12.901180">
                <ele>77.520000</ele>
                <time>2016-06-25T06:35:13Z</time>
            </trkpt>
            <trkpt lon="100.998041" lat="12.901851">
                <ele>80.410000</ele>
                <time>2016-06-25T06:35:40Z</time>
            </trkpt>
            <trkpt lon="100.999317" lat="12.901799">
                <ele>84.250000</ele>
                <time>2016-06-25T06:36:29Z</time>
            </trkpt>
            <trkpt lon="100.999579" lat="12.901565">
                <ele>84.250000</ele>
                <time>2016-06-25T06:36:41Z</time>
            </trkpt>
            <trkpt lon="100.999580" lat="12.901116">
                <ele>84.250000</ele>
                <time>2016-06-25T06:36:55Z</time>
            </trkpt>
            <trkpt lon="100.999577" lat="12.900640">
                <ele>83.770000</ele>
                <time>2016-06-25T06:37:08Z</time>
            </trkpt>
            <trkpt lon="100.999750" lat="12.899525">
                <ele>83.290000</ele>
                <time>2016-06-25T06:37:37Z</time>
            </trkpt>
            <trkpt lon="100.999600" lat="12.899051">
                <ele>80.890000</ele>
                <time>2016-06-25T06:38:01Z</time>
            </trkpt>
            <trkpt lon="100.999615" lat="12.899049">
                <ele>80.890000</ele>
                <time>2016-06-25T06:38:51Z</time>
            </trkpt>
            <trkpt lon="100.999923" lat="12.899489">
                <ele>83.770000</ele>
                <time>2016-06-25T06:39:24Z</time>
            </trkpt>
            <trkpt lon="101.000190" lat="12.899446">
                <ele>83.290000</ele>
                <time>2016-06-25T06:39:38Z</time>
            </trkpt>
            <trkpt lon="101.000726" lat="12.899754">
                <ele>84.250000</ele>
                <time>2016-06-25T06:40:26Z</time>
            </trkpt>
            <trkpt lon="101.000711" lat="12.900264">
                <ele>86.180000</ele>
                <time>2016-06-25T06:40:56Z</time>
            </trkpt>
            <trkpt lon="101.000634" lat="12.900981">
                <ele>87.140000</ele>
                <time>2016-06-25T06:41:23Z</time>
            </trkpt>
            <trkpt lon="101.000624" lat="12.901847">
                <ele>88.580000</ele>
                <time>2016-06-25T06:41:52Z</time>
            </trkpt>
            <trkpt lon="101.000545" lat="12.902563">
                <ele>88.580000</ele>
                <time>2016-06-25T06:42:20Z</time>
            </trkpt>
            <trkpt lon="101.001108" lat="12.902587">
                <ele>89.540000</ele>
                <time>2016-06-25T06:42:38Z</time>
            </trkpt>
            <trkpt lon="101.002007" lat="12.903142">
                <ele>90.980000</ele>
                <time>2016-06-25T06:43:08Z</time>
            </trkpt>
            <trkpt lon="101.003136" lat="12.903528">
                <ele>95.790000</ele>
                <time>2016-06-25T06:43:42Z</time>
            </trkpt>
            <trkpt lon="101.003592" lat="12.903525">
                <ele>97.230000</ele>
                <time>2016-06-25T06:43:57Z</time>
            </trkpt>
            <trkpt lon="101.005040" lat="12.903137">
                <ele>103.480000</ele>
                <time>2016-06-25T06:44:46Z</time>
            </trkpt>
            <trkpt lon="101.005455" lat="12.903015">
                <ele>104.440000</ele>
                <time>2016-06-25T06:45:03Z</time>
            </trkpt>
            <trkpt lon="101.006789" lat="12.902221">
                <ele>110.210000</ele>
                <time>2016-06-25T06:46:18Z</time>
            </trkpt>
            <trkpt lon="101.007348" lat="12.902434">
                <ele>110.690000</ele>
                <time>2016-06-25T06:46:44Z</time>
            </trkpt>
            <trkpt lon="101.007422" lat="12.902501">
                <ele>110.690000</ele>
                <time>2016-06-25T06:47:02Z</time>
            </trkpt>
            <trkpt lon="101.007432" lat="12.902508">
                <ele>111.170000</ele>
                <time>2016-06-25T06:48:11Z</time>
            </trkpt>
            <trkpt lon="101.007081" lat="12.902304">
                <ele>110.210000</ele>
                <time>2016-06-25T06:49:20Z</time>
            </trkpt>
            <trkpt lon="101.007358" lat="12.902361">
                <ele>110.690000</ele>
                <time>2016-06-25T06:49:37Z</time>
            </trkpt>
            <trkpt lon="101.007617" lat="12.902326">
                <ele>108.770000</ele>
                <time>2016-06-25T06:49:48Z</time>
            </trkpt>
            <trkpt lon="101.007769" lat="12.902117">
                <ele>109.730000</ele>
                <time>2016-06-25T06:50:00Z</time>
            </trkpt>
            <trkpt lon="101.007849" lat="12.901929">
                <ele>112.130000</ele>
                <time>2016-06-25T06:50:12Z</time>
            </trkpt>
            <trkpt lon="101.008081" lat="12.901862">
                <ele>113.570000</ele>
                <time>2016-06-25T06:50:25Z</time>
            </trkpt>
            <trkpt lon="101.008412" lat="12.901962">
                <ele>113.570000</ele>
                <time>2016-06-25T06:50:42Z</time>
            </trkpt>
            <trkpt lon="101.008538" lat="12.901369">
                <ele>118.860000</ele>
                <time>2016-06-25T06:52:50Z</time>
            </trkpt>
            <trkpt lon="101.008905" lat="12.901530">
                <ele>119.820000</ele>
                <time>2016-06-25T06:53:48Z</time>
            </trkpt>
            <trkpt lon="101.009245" lat="12.901687">
                <ele>120.300000</ele>
                <time>2016-06-25T06:54:04Z</time>
            </trkpt>
            <trkpt lon="101.009670" lat="12.901834">
                <ele>117.420000</ele>
                <time>2016-06-25T06:54:17Z</time>
            </trkpt>
            <trkpt lon="101.010122" lat="12.901953">
                <ele>117.420000</ele>
                <time>2016-06-25T06:54:29Z</time>
            </trkpt>
            <trkpt lon="101.010489" lat="12.902357">
                <ele>125.110000</ele>
                <time>2016-06-25T06:55:00Z</time>
            </trkpt>
            <trkpt lon="101.010700" lat="12.902648">
                <ele>124.630000</ele>
                <time>2016-06-25T06:55:16Z</time>
            </trkpt>
            <trkpt lon="101.010928" lat="12.902885">
                <ele>120.780000</ele>
                <time>2016-06-25T06:55:26Z</time>
            </trkpt>
            <trkpt lon="101.012093" lat="12.903172">
                <ele>120.300000</ele>
                <time>2016-06-25T06:55:58Z</time>
            </trkpt>
            <trkpt lon="101.014366" lat="12.903269">
                <ele>133.760000</ele>
                <time>2016-06-25T06:58:28Z</time>
            </trkpt>
            <trkpt lon="101.014980" lat="12.903503">
                <ele>141.450000</ele>
                <time>2016-06-25T06:59:12Z</time>
            </trkpt>
            <trkpt lon="101.015625" lat="12.903502">
                <ele>146.740000</ele>
                <time>2016-06-25T06:59:57Z</time>
            </trkpt>
            <trkpt lon="101.015877" lat="12.903552">
                <ele>147.700000</ele>
                <time>2016-06-25T07:00:12Z</time>
            </trkpt>
            <trkpt lon="101.016628" lat="12.903504">
                <ele>148.660000</ele>
                <time>2016-06-25T07:00:56Z</time>
            </trkpt>
            <trkpt lon="101.016857" lat="12.903392">
                <ele>149.140000</ele>
                <time>2016-06-25T07:01:27Z</time>
            </trkpt>
            <trkpt lon="101.017268" lat="12.903024">
                <ele>148.660000</ele>
                <time>2016-06-25T07:01:42Z</time>
            </trkpt>
            <trkpt lon="101.017513" lat="12.902288">
                <ele>146.260000</ele>
                <time>2016-06-25T07:02:00Z</time>
            </trkpt>
            <trkpt lon="101.017958" lat="12.901225">
                <ele>145.780000</ele>
                <time>2016-06-25T07:02:25Z</time>
            </trkpt>
            <trkpt lon="101.018030" lat="12.899128">
                <ele>157.310000</ele>
                <time>2016-06-25T07:03:48Z</time>
            </trkpt>
            <trkpt lon="101.019348" lat="12.897843">
                <ele>171.250000</ele>
                <time>2016-06-25T07:05:38Z</time>
            </trkpt>
            <trkpt lon="101.020191" lat="12.897117">
                <ele>167.410000</ele>
                <time>2016-06-25T07:06:12Z</time>
            </trkpt>
            <trkpt lon="101.021555" lat="12.896366">
                <ele>165.000000</ele>
                <time>2016-06-25T07:06:37Z</time>
            </trkpt>
            <trkpt lon="101.022395" lat="12.895618">
                <ele>176.540000</ele>
                <time>2016-06-25T07:07:36Z</time>
            </trkpt>
            <trkpt lon="101.022269" lat="12.895309">
                <ele>182.310000</ele>
                <time>2016-06-25T07:08:02Z</time>
            </trkpt>
            <trkpt lon="101.021266" lat="12.894075">
                <ele>188.080000</ele>
                <time>2016-06-25T07:09:41Z</time>
            </trkpt>
            <trkpt lon="101.021182" lat="12.893835">
                <ele>188.560000</ele>
                <time>2016-06-25T07:09:58Z</time>
            </trkpt>
            <trkpt lon="101.021873" lat="12.893505">
                <ele>185.190000</ele>
                <time>2016-06-25T07:10:27Z</time>
            </trkpt>
            <trkpt lon="101.024078" lat="12.892874">
                <ele>181.830000</ele>
                <time>2016-06-25T07:11:50Z</time>
            </trkpt>
            <trkpt lon="101.024020" lat="12.892605">
                <ele>183.750000</ele>
                <time>2016-06-25T07:34:14Z</time>
            </trkpt>
            <trkpt lon="101.023617" lat="12.891199">
                <ele>187.110000</ele>
                <time>2016-06-25T07:34:59Z</time>
            </trkpt>
            <trkpt lon="101.023471" lat="12.890704">
                <ele>186.630000</ele>
                <time>2016-06-25T07:35:14Z</time>
            </trkpt>
            <trkpt lon="101.022439" lat="12.887708">
                <ele>176.540000</ele>
                <time>2016-06-25T07:36:47Z</time>
            </trkpt>
            <trkpt lon="101.021655" lat="12.888041">
                <ele>178.460000</ele>
                <time>2016-06-25T07:37:33Z</time>
            </trkpt>
            <trkpt lon="101.021557" lat="12.887579">
                <ele>180.870000</ele>
                <time>2016-06-25T07:37:57Z</time>
            </trkpt>
            <trkpt lon="101.021550" lat="12.887006">
                <ele>182.310000</ele>
                <time>2016-06-25T07:38:17Z</time>
            </trkpt>
            <trkpt lon="101.021473" lat="12.886581">
                <ele>183.270000</ele>
                <time>2016-06-25T07:38:34Z</time>
            </trkpt>
            <trkpt lon="101.021030" lat="12.886612">
                <ele>184.710000</ele>
                <time>2016-06-25T07:38:51Z</time>
            </trkpt>
            <trkpt lon="101.020699" lat="12.886504">
                <ele>182.790000</ele>
                <time>2016-06-25T07:39:16Z</time>
            </trkpt>
            <trkpt lon="101.020639" lat="12.886461">
                <ele>180.870000</ele>
                <time>2016-06-25T07:39:32Z</time>
            </trkpt>
            <trkpt lon="101.020431" lat="12.886380">
                <ele>176.540000</ele>
                <time>2016-06-25T07:40:12Z</time>
            </trkpt>
            <trkpt lon="101.019623" lat="12.886372">
                <ele>167.890000</ele>
                <time>2016-06-25T07:41:00Z</time>
            </trkpt>
            <trkpt lon="101.019189" lat="12.886334">
                <ele>168.370000</ele>
                <time>2016-06-25T07:41:14Z</time>
            </trkpt>
            <trkpt lon="101.019156" lat="12.886280">
                <ele>168.370000</ele>
                <time>2016-06-25T07:41:16Z</time>
            </trkpt>
            <trkpt lon="101.019215" lat="12.885501">
                <ele>166.930000</ele>
                <time>2016-06-25T07:41:40Z</time>
            </trkpt>
            <trkpt lon="101.019027" lat="12.885002">
                <ele>166.450000</ele>
                <time>2016-06-25T07:41:56Z</time>
            </trkpt>
            <trkpt lon="101.018952" lat="12.884819">
                <ele>164.040000</ele>
                <time>2016-06-25T07:42:09Z</time>
            </trkpt>
            <trkpt lon="101.018824" lat="12.884671">
                <ele>158.750000</ele>
                <time>2016-06-25T07:42:22Z</time>
            </trkpt>
            <trkpt lon="101.018622" lat="12.884538">
                <ele>153.470000</ele>
                <time>2016-06-25T07:42:50Z</time>
            </trkpt>
            <trkpt lon="101.017870" lat="12.884353">
                <ele>144.340000</ele>
                <time>2016-06-25T07:43:33Z</time>
            </trkpt>
            <trkpt lon="101.017130" lat="12.883778">
                <ele>147.700000</ele>
                <time>2016-06-25T07:44:27Z</time>
            </trkpt>
            <trkpt lon="101.016623" lat="12.883525">
                <ele>151.540000</ele>
                <time>2016-06-25T07:45:16Z</time>
            </trkpt>
            <trkpt lon="101.015923" lat="12.883406">
                <ele>156.350000</ele>
                <time>2016-06-25T07:46:04Z</time>
            </trkpt>
            <trkpt lon="101.015476" lat="12.883407">
                <ele>155.390000</ele>
                <time>2016-06-25T07:46:29Z</time>
            </trkpt>
            <trkpt lon="101.014850" lat="12.883303">
                <ele>155.390000</ele>
                <time>2016-06-25T07:46:59Z</time>
            </trkpt>
            <trkpt lon="101.014199" lat="12.883396">
                <ele>162.600000</ele>
                <time>2016-06-25T07:48:03Z</time>
            </trkpt>
            <trkpt lon="101.014114" lat="12.883028">
                <ele>164.520000</ele>
                <time>2016-06-25T07:48:54Z</time>
            </trkpt>
            <trkpt lon="101.013873" lat="12.882103">
                <ele>156.830000</ele>
                <time>2016-06-25T07:49:48Z</time>
            </trkpt>
            <trkpt lon="101.013738" lat="12.882102">
                <ele>155.390000</ele>
                <time>2016-06-25T07:50:11Z</time>
            </trkpt>
            <trkpt lon="101.013629" lat="12.882127">
                <ele>152.990000</ele>
                <time>2016-06-25T07:50:32Z</time>
            </trkpt>
            <trkpt lon="101.013426" lat="12.882223">
                <ele>153.950000</ele>
                <time>2016-06-25T07:50:43Z</time>
            </trkpt>
            <trkpt lon="101.013425" lat="12.882316">
                <ele>154.430000</ele>
                <time>2016-06-25T07:50:49Z</time>
            </trkpt>
            <trkpt lon="101.012468" lat="12.883320">
                <ele>137.610000</ele>
                <time>2016-06-25T07:54:33Z</time>
            </trkpt>
            <trkpt lon="101.012058" lat="12.883465">
                <ele>127.030000</ele>
                <time>2016-06-25T07:55:39Z</time>
            </trkpt>
            <trkpt lon="101.011868" lat="12.883807">
                <ele>125.590000</ele>
                <time>2016-06-25T07:56:13Z</time>
            </trkpt>
            <trkpt lon="101.011895" lat="12.884514">
                <ele>131.840000</ele>
                <time>2016-06-25T07:58:18Z</time>
            </trkpt>
            <trkpt lon="101.011667" lat="12.884628">
                <ele>126.550000</ele>
                <time>2016-06-25T07:58:48Z</time>
            </trkpt>
            <trkpt lon="101.011193" lat="12.884393">
                <ele>113.090000</ele>
                <time>2016-06-25T07:59:38Z</time>
            </trkpt>
            <trkpt lon="101.010646" lat="12.884295">
                <ele>113.090000</ele>
                <time>2016-06-25T08:00:21Z</time>
            </trkpt>
            <trkpt lon="101.010092" lat="12.884436">
                <ele>122.710000</ele>
                <time>2016-06-25T08:01:30Z</time>
            </trkpt>
            <trkpt lon="101.010003" lat="12.884307">
                <ele>124.630000</ele>
                <time>2016-06-25T08:01:52Z</time>
            </trkpt>
            <trkpt lon="101.009616" lat="12.883827">
                <ele>122.710000</ele>
                <time>2016-06-25T08:02:16Z</time>
            </trkpt>
            <trkpt lon="101.009360" lat="12.883658">
                <ele>121.260000</ele>
                <time>2016-06-25T08:02:27Z</time>
            </trkpt>
            <trkpt lon="101.009084" lat="12.883714">
                <ele>123.670000</ele>
                <time>2016-06-25T08:02:53Z</time>
            </trkpt>
            <trkpt lon="101.009037" lat="12.883679">
                <ele>122.710000</ele>
                <time>2016-06-25T08:03:28Z</time>
            </trkpt>
            <trkpt lon="101.008850" lat="12.882633">
                <ele>117.420000</ele>
                <time>2016-06-25T08:03:57Z</time>
            </trkpt>
            <trkpt lon="101.008547" lat="12.881462">
                <ele>111.170000</ele>
                <time>2016-06-25T08:04:26Z</time>
            </trkpt>
            <trkpt lon="101.007263" lat="12.881250">
                <ele>105.400000</ele>
                <time>2016-06-25T08:04:55Z</time>
            </trkpt>
            <trkpt lon="101.006627" lat="12.881174">
                <ele>103.960000</ele>
                <time>2016-06-25T08:05:11Z</time>
            </trkpt>
            <trkpt lon="101.006295" lat="12.881279">
                <ele>103.480000</ele>
                <time>2016-06-25T08:05:20Z</time>
            </trkpt>
            <trkpt lon="101.006160" lat="12.881285">
                <ele>103.000000</ele>
                <time>2016-06-25T08:05:23Z</time>
            </trkpt>
            <trkpt lon="101.004892" lat="12.880540">
                <ele>97.710000</ele>
                <time>2016-06-25T08:06:10Z</time>
            </trkpt>
            <trkpt lon="101.004952" lat="12.880301">
                <ele>99.630000</ele>
                <time>2016-06-25T08:06:42Z</time>
            </trkpt>
            <trkpt lon="101.004874" lat="12.880614">
                <ele>101.080000</ele>
                <time>2016-06-25T08:07:19Z</time>
            </trkpt>
            <trkpt lon="101.004210" lat="12.880594">
                <ele>100.600000</ele>
                <time>2016-06-25T08:07:57Z</time>
            </trkpt>
            <trkpt lon="101.003634" lat="12.880602">
                <ele>98.670000</ele>
                <time>2016-06-25T08:08:12Z</time>
            </trkpt>
            <trkpt lon="101.002431" lat="12.880681">
                <ele>95.790000</ele>
                <time>2016-06-25T08:09:07Z</time>
            </trkpt>
            <trkpt lon="101.002264" lat="12.880945">
                <ele>95.310000</ele>
                <time>2016-06-25T08:09:39Z</time>
            </trkpt>
            <trkpt lon="101.001807" lat="12.881247">
                <ele>93.870000</ele>
                <time>2016-06-25T08:09:56Z</time>
            </trkpt>
            <trkpt lon="101.001535" lat="12.881258">
                <ele>92.420000</ele>
                <time>2016-06-25T08:10:23Z</time>
            </trkpt>
            <trkpt lon="101.000524" lat="12.882184">
                <ele>91.940000</ele>
                <time>2016-06-25T08:11:31Z</time>
            </trkpt>
            <trkpt lon="101.000532" lat="12.882188">
                <ele>91.940000</ele>
                <time>2016-06-25T08:11:49Z</time>
            </trkpt>
            <trkpt lon="101.001431" lat="12.881410">
                <ele>94.830000</ele>
                <time>2016-06-25T08:12:34Z</time>
            </trkpt>
            <trkpt lon="101.002188" lat="12.881043">
                <ele>98.670000</ele>
                <time>2016-06-25T08:13:07Z</time>
            </trkpt>
            <trkpt lon="101.002245" lat="12.880953">
                <ele>98.190000</ele>
                <time>2016-06-25T08:13:11Z</time>
            </trkpt>
            <trkpt lon="101.001979" lat="12.880793">
                <ele>96.750000</ele>
                <time>2016-06-25T08:13:21Z</time>
            </trkpt>
            <trkpt lon="101.001409" lat="12.880574">
                <ele>94.350000</ele>
                <time>2016-06-25T08:13:37Z</time>
            </trkpt>
            <trkpt lon="100.998360" lat="12.879557">
                <ele>84.250000</ele>
                <time>2016-06-25T08:14:55Z</time>
            </trkpt>
            <trkpt lon="100.997348" lat="12.879222">
                <ele>79.930000</ele>
                <time>2016-06-25T08:15:21Z</time>
            </trkpt>
            <trkpt lon="100.997394" lat="12.880205">
                <ele>81.370000</ele>
                <time>2016-06-25T08:15:55Z</time>
            </trkpt>
            <trkpt lon="100.996521" lat="12.879938">
                <ele>78.480000</ele>
                <time>2016-06-25T08:16:17Z</time>
            </trkpt>
            <trkpt lon="100.994372" lat="12.879406">
                <ele>71.760000</ele>
                <time>2016-06-25T08:17:15Z</time>
            </trkpt>
            <trkpt lon="100.994097" lat="12.879476">
                <ele>71.270000</ele>
                <time>2016-06-25T08:17:27Z</time>
            </trkpt>
            <trkpt lon="100.994139" lat="12.879893">
                <ele>72.720000</ele>
                <time>2016-06-25T08:17:40Z</time>
            </trkpt>
            <trkpt lon="100.993922" lat="12.880112">
                <ele>72.240000</ele>
                <time>2016-06-25T08:17:50Z</time>
            </trkpt>
            <trkpt lon="100.992912" lat="12.879840">
                <ele>70.310000</ele>
                <time>2016-06-25T08:18:17Z</time>
            </trkpt>
            <trkpt lon="100.991297" lat="12.879270">
                <ele>65.510000</ele>
                <time>2016-06-25T08:18:58Z</time>
            </trkpt>
            <trkpt lon="100.990935" lat="12.879748">
                <ele>65.990000</ele>
                <time>2016-06-25T08:19:16Z</time>
            </trkpt>
            <trkpt lon="100.990827" lat="12.879738">
                <ele>65.510000</ele>
                <time>2016-06-25T08:19:19Z</time>
            </trkpt>
            <trkpt lon="100.987821" lat="12.878680">
                <ele>61.660000</ele>
                <time>2016-06-25T08:20:38Z</time>
            </trkpt>
            <trkpt lon="100.987313" lat="12.878689">
                <ele>59.260000</ele>
                <time>2016-06-25T08:20:52Z</time>
            </trkpt>
            <trkpt lon="100.987327" lat="12.879001">
                <ele>58.780000</ele>
                <time>2016-06-25T08:21:02Z</time>
            </trkpt>
            <trkpt lon="100.987299" lat="12.879118">
                <ele>60.220000</ele>
                <time>2016-06-25T08:21:07Z</time>
            </trkpt>
            <trkpt lon="100.987174" lat="12.879121">
                <ele>60.220000</ele>
                <time>2016-06-25T08:21:12Z</time>
            </trkpt>
            <trkpt lon="100.986155" lat="12.877410">
                <ele>58.300000</ele>
                <time>2016-06-25T08:22:04Z</time>
            </trkpt>
            <trkpt lon="100.985923" lat="12.877204">
                <ele>57.820000</ele>
                <time>2016-06-25T08:22:15Z</time>
            </trkpt>
            <trkpt lon="100.985427" lat="12.877470">
                <ele>55.890000</ele>
                <time>2016-06-25T08:22:33Z</time>
            </trkpt>
            <trkpt lon="100.984384" lat="12.877389">
                <ele>55.890000</ele>
                <time>2016-06-25T08:23:02Z</time>
            </trkpt>
            <trkpt lon="100.983635" lat="12.877534">
                <ele>52.530000</ele>
                <time>2016-06-25T08:23:24Z</time>
            </trkpt>
            <trkpt lon="100.982531" lat="12.877279">
                <ele>53.490000</ele>
                <time>2016-06-25T08:23:59Z</time>
            </trkpt>
            <trkpt lon="100.982263" lat="12.877123">
                <ele>54.930000</ele>
                <time>2016-06-25T08:24:12Z</time>
            </trkpt>
            <trkpt lon="100.981032" lat="12.877385">
                <ele>51.090000</ele>
                <time>2016-06-25T08:24:53Z</time>
            </trkpt>
            <trkpt lon="100.980187" lat="12.877336">
                <ele>50.130000</ele>
                <time>2016-06-25T08:25:18Z</time>
            </trkpt>
            <trkpt lon="100.980015" lat="12.876990">
                <ele>50.130000</ele>
                <time>2016-06-25T08:25:30Z</time>
            </trkpt>
            <trkpt lon="100.979180" lat="12.876404">
                <ele>50.130000</ele>
                <time>2016-06-25T08:25:59Z</time>
            </trkpt>
            <trkpt lon="100.978920" lat="12.875859">
                <ele>51.570000</ele>
                <time>2016-06-25T08:26:25Z</time>
            </trkpt>
            <trkpt lon="100.978920" lat="12.875673">
                <ele>50.610000</ele>
                <time>2016-06-25T08:26:33Z</time>
            </trkpt>
            <trkpt lon="100.978780" lat="12.875449">
                <ele>51.090000</ele>
                <time>2016-06-25T08:27:06Z</time>
            </trkpt>
            <trkpt lon="100.978734" lat="12.875295">
                <ele>50.130000</ele>
                <time>2016-06-25T08:27:29Z</time>
            </trkpt>
            <trkpt lon="100.978471" lat="12.874658">
                <ele>50.130000</ele>
                <time>2016-06-25T08:28:06Z</time>
            </trkpt>
            <trkpt lon="100.978252" lat="12.874452">
                <ele>49.650000</ele>
                <time>2016-06-25T08:28:19Z</time>
            </trkpt>
            <trkpt lon="100.977033" lat="12.874232">
                <ele>48.680000</ele>
                <time>2016-06-25T08:29:10Z</time>
            </trkpt>
            <trkpt lon="100.976518" lat="12.874262">
                <ele>47.720000</ele>
                <time>2016-06-25T08:29:35Z</time>
            </trkpt>
            <trkpt lon="100.975258" lat="12.874299">
                <ele>50.130000</ele>
                <time>2016-06-25T08:30:29Z</time>
            </trkpt>
            <trkpt lon="100.974368" lat="12.873682">
                <ele>44.360000</ele>
                <time>2016-06-25T08:31:00Z</time>
            </trkpt>
            <trkpt lon="100.971869" lat="12.872565">
                <ele>49.650000</ele>
                <time>2016-06-25T08:32:27Z</time>
            </trkpt>
            <trkpt lon="100.971499" lat="12.872543">
                <ele>48.680000</ele>
                <time>2016-06-25T08:32:36Z</time>
            </trkpt>
            <trkpt lon="100.971187" lat="12.872638">
                <ele>44.840000</ele>
                <time>2016-06-25T08:32:47Z</time>
            </trkpt>
            <trkpt lon="100.971171" lat="12.872612">
                <ele>44.840000</ele>
                <time>2016-06-25T08:32:49Z</time>
            </trkpt>
            <trkpt lon="100.970996" lat="12.869145">
                <ele>44.840000</ele>
                <time>2016-06-25T08:37:47Z</time>
            </trkpt>
            <trkpt lon="100.971023" lat="12.869140">
                <ele>44.840000</ele>
                <time>2016-06-25T08:39:52Z</time>
            </trkpt>
            <trkpt lon="100.971003" lat="12.869138">
                <ele>40.510000</ele>
                <time>2016-06-25T08:40:37Z</time>
            </trkpt>
            <trkpt lon="100.970998" lat="12.869130">
                <ele>38.590000</ele>
                <time>2016-06-25T08:42:01Z</time>
            </trkpt>
            <trkpt lon="100.970975" lat="12.869111">
                <ele>39.070000</ele>
                <time>2016-06-25T08:43:37Z</time>
            </trkpt>
            <trkpt lon="100.970950" lat="12.869187">
                <ele>41.470000</ele>
                <time>2016-06-25T08:46:06Z</time>
            </trkpt>
            <trkpt lon="100.970967" lat="12.870198">
                <ele>40.030000</ele>
                <time>2016-06-25T08:46:37Z</time>
            </trkpt>
            <trkpt lon="100.971051" lat="12.871604">
                <ele>39.550000</ele>
                <time>2016-06-25T08:47:12Z</time>
            </trkpt>
            <trkpt lon="100.971091" lat="12.872968">
                <ele>40.030000</ele>
                <time>2016-06-25T08:47:45Z</time>
            </trkpt>
            <trkpt lon="100.970284" lat="12.872616">
                <ele>40.030000</ele>
                <time>2016-06-25T08:48:06Z</time>
            </trkpt>
            <trkpt lon="100.969728" lat="12.872635">
                <ele>40.030000</ele>
                <time>2016-06-25T08:48:19Z</time>
            </trkpt>
            <trkpt lon="100.969589" lat="12.872603">
                <ele>40.510000</ele>
                <time>2016-06-25T08:48:22Z</time>
            </trkpt>
            <trkpt lon="100.969109" lat="12.872234">
                <ele>39.550000</ele>
                <time>2016-06-25T08:48:35Z</time>
            </trkpt>
            <trkpt lon="100.967576" lat="12.871576">
                <ele>38.590000</ele>
                <time>2016-06-25T08:49:15Z</time>
            </trkpt>
            <trkpt lon="100.967172" lat="12.871354">
                <ele>38.590000</ele>
                <time>2016-06-25T08:49:32Z</time>
            </trkpt>
            <trkpt lon="100.967160" lat="12.871310">
                <ele>38.590000</ele>
                <time>2016-06-25T08:49:34Z</time>
            </trkpt>
            <trkpt lon="100.966451" lat="12.870752">
                <ele>39.550000</ele>
                <time>2016-06-25T08:50:04Z</time>
            </trkpt>
            <trkpt lon="100.965301" lat="12.869539">
                <ele>39.070000</ele>
                <time>2016-06-25T08:50:48Z</time>
            </trkpt>
            <trkpt lon="100.964958" lat="12.869279">
                <ele>36.670000</ele>
                <time>2016-06-25T08:50:59Z</time>
            </trkpt>
            <trkpt lon="100.964259" lat="12.869206">
                <ele>35.230000</ele>
                <time>2016-06-25T08:51:15Z</time>
            </trkpt>
            <trkpt lon="100.963597" lat="12.868506">
                <ele>34.260000</ele>
                <time>2016-06-25T08:51:38Z</time>
            </trkpt>
            <trkpt lon="100.963061" lat="12.868296">
                <ele>34.260000</ele>
                <time>2016-06-25T08:51:51Z</time>
            </trkpt>
            <trkpt lon="100.962797" lat="12.868199">
                <ele>33.780000</ele>
                <time>2016-06-25T08:51:58Z</time>
            </trkpt>
            <trkpt lon="100.962222" lat="12.868298">
                <ele>33.780000</ele>
                <time>2016-06-25T08:52:12Z</time>
            </trkpt>
            <trkpt lon="100.962152" lat="12.868659">
                <ele>33.780000</ele>
                <time>2016-06-25T08:52:21Z</time>
            </trkpt>
            <trkpt lon="100.961978" lat="12.869014">
                <ele>33.300000</ele>
                <time>2016-06-25T08:52:31Z</time>
            </trkpt>
            <trkpt lon="100.961700" lat="12.869287">
                <ele>32.340000</ele>
                <time>2016-06-25T08:52:40Z</time>
            </trkpt>
            <trkpt lon="100.961024" lat="12.869481">
                <ele>31.380000</ele>
                <time>2016-06-25T08:52:57Z</time>
            </trkpt>
            <trkpt lon="100.960487" lat="12.869708">
                <ele>30.900000</ele>
                <time>2016-06-25T08:53:10Z</time>
            </trkpt>
            <trkpt lon="100.959904" lat="12.869751">
                <ele>30.900000</ele>
                <time>2016-06-25T08:53:25Z</time>
            </trkpt>
            <trkpt lon="100.959776" lat="12.870006">
                <ele>30.420000</ele>
                <time>2016-06-25T08:53:31Z</time>
            </trkpt>
            <trkpt lon="100.959812" lat="12.870922">
                <ele>31.380000</ele>
                <time>2016-06-25T08:53:52Z</time>
            </trkpt>
            <trkpt lon="100.959440" lat="12.871007">
                <ele>31.380000</ele>
                <time>2016-06-25T08:54:05Z</time>
            </trkpt>
            <trkpt lon="100.960762" lat="12.872509">
                <ele>34.740000</ele>
                <time>2016-06-25T08:54:50Z</time>
            </trkpt>
            <trkpt lon="100.962132" lat="12.873051">
                <ele>36.670000</ele>
                <time>2016-06-25T08:55:23Z</time>
            </trkpt>
            <trkpt lon="100.962919" lat="12.873251">
                <ele>37.150000</ele>
                <time>2016-06-25T08:55:41Z</time>
            </trkpt>
            <trkpt lon="100.965303" lat="12.873478">
                <ele>39.070000</ele>
                <time>2016-06-25T08:56:34Z</time>
            </trkpt>
            <trkpt lon="100.965613" lat="12.873566">
                <ele>38.590000</ele>
                <time>2016-06-25T08:56:42Z</time>
            </trkpt>
            <trkpt lon="100.965413" lat="12.875959">
                <ele>38.110000</ele>
                <time>2016-06-25T08:57:34Z</time>
            </trkpt>
            <trkpt lon="100.965384" lat="12.876753">
                <ele>37.630000</ele>
                <time>2016-06-25T08:57:51Z</time>
            </trkpt>
            <trkpt lon="100.965687" lat="12.877442">
                <ele>38.590000</ele>
                <time>2016-06-25T08:58:08Z</time>
            </trkpt>
            <trkpt lon="100.965930" lat="12.878620">
                <ele>40.510000</ele>
                <time>2016-06-25T08:58:34Z</time>
            </trkpt>
            <trkpt lon="100.966272" lat="12.878885">
                <ele>39.550000</ele>
                <time>2016-06-25T08:58:43Z</time>
            </trkpt>
            <trkpt lon="100.966426" lat="12.879739">
                <ele>41.950000</ele>
                <time>2016-06-25T08:59:01Z</time>
            </trkpt>
            <trkpt lon="100.966640" lat="12.880921">
                <ele>40.990000</ele>
                <time>2016-06-25T08:59:28Z</time>
            </trkpt>
            <trkpt lon="100.966754" lat="12.881716">
                <ele>40.990000</ele>
                <time>2016-06-25T08:59:53Z</time>
            </trkpt>
            <trkpt lon="100.967887" lat="12.883584">
                <ele>42.920000</ele>
                <time>2016-06-25T09:00:54Z</time>
            </trkpt>
            <trkpt lon="100.968436" lat="12.883230">
                <ele>41.470000</ele>
                <time>2016-06-25T09:01:13Z</time>
            </trkpt>
            <trkpt lon="100.970045" lat="12.885335">
                <ele>47.240000</ele>
                <time>2016-06-25T09:02:25Z</time>
            </trkpt>
            <trkpt lon="100.970726" lat="12.886267">
                <ele>49.160000</ele>
                <time>2016-06-25T09:03:06Z</time>
            </trkpt>
            <trkpt lon="100.971059" lat="12.886710">
                <ele>49.650000</ele>
                <time>2016-06-25T09:03:22Z</time>
            </trkpt>
            <trkpt lon="100.972383" lat="12.886716">
                <ele>50.610000</ele>
                <time>2016-06-25T09:03:59Z</time>
            </trkpt>
            <trkpt lon="100.972880" lat="12.888497">
                <ele>57.820000</ele>
                <time>2016-06-25T09:05:25Z</time>
            </trkpt>
            <trkpt lon="100.973575" lat="12.888299">
                <ele>59.260000</ele>
                <time>2016-06-25T09:06:13Z</time>
            </trkpt>
            <trkpt lon="100.974526" lat="12.888033">
                <ele>57.820000</ele>
                <time>2016-06-25T09:07:12Z</time>
            </trkpt>
            <trkpt lon="100.974913" lat="12.887906">
                <ele>57.340000</ele>
                <time>2016-06-25T09:07:41Z</time>
            </trkpt>
            <trkpt lon="100.975410" lat="12.888054">
                <ele>56.860000</ele>
                <time>2016-06-25T09:08:38Z</time>
            </trkpt>
            <trkpt lon="100.974946" lat="12.889478">
                <ele>63.580000</ele>
                <time>2016-06-25T09:10:06Z</time>
            </trkpt>
            <trkpt lon="100.974894" lat="12.889452">
                <ele>63.580000</ele>
                <time>2016-06-25T09:10:08Z</time>
            </trkpt>
            <trkpt lon="100.974443" lat="12.889307">
                <ele>62.620000</ele>
                <time>2016-06-25T09:10:23Z</time>
            </trkpt>
            <trkpt lon="100.973629" lat="12.890211">
                <ele>64.070000</ele>
                <time>2016-06-25T09:10:56Z</time>
            </trkpt>
            <trkpt lon="100.972524" lat="12.891390">
                <ele>53.970000</ele>
                <time>2016-06-25T09:11:50Z</time>
            </trkpt>
            <trkpt lon="100.971749" lat="12.891798">
                <ele>49.160000</ele>
                <time>2016-06-25T09:12:26Z</time>
            </trkpt>
            <trkpt lon="100.970584" lat="12.892765">
                <ele>51.570000</ele>
                <time>2016-06-25T09:13:23Z</time>
            </trkpt>
            <trkpt lon="100.970375" lat="12.892830">
                <ele>51.570000</ele>
                <time>2016-06-25T09:13:35Z</time>
            </trkpt>
            <trkpt lon="100.969802" lat="12.893900">
                <ele>58.780000</ele>
                <time>2016-06-25T09:14:25Z</time>
            </trkpt>
            <trkpt lon="100.968952" lat="12.894731">
                <ele>60.700000</ele>
                <time>2016-06-25T09:15:10Z</time>
            </trkpt>
            <trkpt lon="100.968811" lat="12.895034">
                <ele>62.140000</ele>
                <time>2016-06-25T09:15:23Z</time>
            </trkpt>
            <trkpt lon="100.968625" lat="12.895304">
                <ele>62.620000</ele>
                <time>2016-06-25T09:15:39Z</time>
            </trkpt>
            <trkpt lon="100.968614" lat="12.895311">
                <ele>64.070000</ele>
                <time>2016-06-25T09:16:35Z</time>
            </trkpt>
            <trkpt lon="100.968232" lat="12.895690">
                <ele>65.990000</ele>
                <time>2016-06-25T09:17:00Z</time>
            </trkpt>
            <trkpt lon="100.967780" lat="12.895737">
                <ele>67.430000</ele>
                <time>2016-06-25T09:17:21Z</time>
            </trkpt>
            <trkpt lon="100.967586" lat="12.895892">
                <ele>67.430000</ele>
                <time>2016-06-25T09:17:33Z</time>
            </trkpt>
            <trkpt lon="100.967312" lat="12.895815">
                <ele>70.310000</ele>
                <time>2016-06-25T09:17:46Z</time>
            </trkpt>
            <trkpt lon="100.967209" lat="12.895747">
                <ele>69.350000</ele>
                <time>2016-06-25T09:17:55Z</time>
            </trkpt>
            <trkpt lon="100.966575" lat="12.895991">
                <ele>69.830000</ele>
                <time>2016-06-25T09:18:30Z</time>
            </trkpt>
            <trkpt lon="100.967033" lat="12.896311">
                <ele>69.830000</ele>
                <time>2016-06-25T09:18:54Z</time>
            </trkpt>
            <trkpt lon="100.967041" lat="12.896553">
                <ele>69.830000</ele>
                <time>2016-06-25T09:19:04Z</time>
            </trkpt>
            <trkpt lon="100.966881" lat="12.896550">
                <ele>69.830000</ele>
                <time>2016-06-25T09:19:10Z</time>
            </trkpt>
            <trkpt lon="100.967029" lat="12.896709">
                <ele>73.680000</ele>
                <time>2016-06-25T09:19:24Z</time>
            </trkpt>
            <trkpt lon="100.967778" lat="12.896092">
                <ele>69.350000</ele>
                <time>2016-06-25T09:19:59Z</time>
            </trkpt>
            <trkpt lon="100.967924" lat="12.896143">
                <ele>68.870000</ele>
                <time>2016-06-25T09:20:07Z</time>
            </trkpt>
            <trkpt lon="100.967720" lat="12.896433">
                <ele>67.430000</ele>
                <time>2016-06-25T09:20:22Z</time>
            </trkpt>
            <trkpt lon="100.967802" lat="12.896662">
                <ele>67.430000</ele>
                <time>2016-06-25T09:20:33Z</time>
            </trkpt>
            <trkpt lon="100.967667" lat="12.896929">
                <ele>67.910000</ele>
                <time>2016-06-25T09:20:45Z</time>
            </trkpt>
            <trkpt lon="100.967653" lat="12.896950">
                <ele>67.430000</ele>
                <time>2016-06-25T09:20:46Z</time>
            </trkpt>
            <trkpt lon="100.967890" lat="12.897309">
                <ele>69.350000</ele>
                <time>2016-06-25T09:21:05Z</time>
            </trkpt>
            <trkpt lon="100.968018" lat="12.897405">
                <ele>69.350000</ele>
                <time>2016-06-25T09:21:11Z</time>
            </trkpt>
            <trkpt lon="100.968325" lat="12.897507">
                <ele>68.870000</ele>
                <time>2016-06-25T09:21:22Z</time>
            </trkpt>
            <trkpt lon="100.968517" lat="12.897724">
                <ele>68.870000</ele>
                <time>2016-06-25T09:21:32Z</time>
            </trkpt>
            <trkpt lon="100.968643" lat="12.897990">
                <ele>68.870000</ele>
                <time>2016-06-25T09:21:43Z</time>
            </trkpt>
            <trkpt lon="100.968933" lat="12.898202">
                <ele>68.870000</ele>
                <time>2016-06-25T09:21:55Z</time>
            </trkpt>
            <trkpt lon="100.969214" lat="12.898382">
                <ele>68.390000</ele>
                <time>2016-06-25T09:22:05Z</time>
            </trkpt>
            <trkpt lon="100.969087" lat="12.898889">
                <ele>68.390000</ele>
                <time>2016-06-25T09:22:24Z</time>
            </trkpt>
            <trkpt lon="100.968842" lat="12.898951">
                <ele>68.390000</ele>
                <time>2016-06-25T09:22:33Z</time>
            </trkpt>
            <trkpt lon="100.968790" lat="12.899043">
                <ele>67.910000</ele>
                <time>2016-06-25T09:22:37Z</time>
            </trkpt>
            <trkpt lon="100.968769" lat="12.899257">
                <ele>67.430000</ele>
                <time>2016-06-25T09:22:45Z</time>
            </trkpt>
            <trkpt lon="100.969055" lat="12.899414">
                <ele>67.910000</ele>
                <time>2016-06-25T09:22:56Z</time>
            </trkpt>
            <trkpt lon="100.969096" lat="12.899524">
                <ele>67.430000</ele>
                <time>2016-06-25T09:23:00Z</time>
            </trkpt>
            <trkpt lon="100.969182" lat="12.899654">
                <ele>67.430000</ele>
                <time>2016-06-25T09:23:05Z</time>
            </trkpt>
            <trkpt lon="100.969016" lat="12.899842">
                <ele>66.950000</ele>
                <time>2016-06-25T09:23:15Z</time>
            </trkpt>
            <trkpt lon="100.969077" lat="12.900153">
                <ele>65.990000</ele>
                <time>2016-06-25T09:23:29Z</time>
            </trkpt>
            <trkpt lon="100.968727" lat="12.900261">
                <ele>70.310000</ele>
                <time>2016-06-25T09:23:49Z</time>
            </trkpt>
            <trkpt lon="100.968684" lat="12.900527">
                <ele>71.270000</ele>
                <time>2016-06-25T09:24:00Z</time>
            </trkpt>
            <trkpt lon="100.968172" lat="12.900560">
                <ele>76.560000</ele>
                <time>2016-06-25T09:24:22Z</time>
            </trkpt>
            <trkpt lon="100.968107" lat="12.900415">
                <ele>74.640000</ele>
                <time>2016-06-25T09:24:31Z</time>
            </trkpt>
            <trkpt lon="100.968301" lat="12.900422">
                <ele>76.080000</ele>
                <time>2016-06-25T09:24:44Z</time>
            </trkpt>
            <trkpt lon="100.968449" lat="12.900196">
                <ele>80.410000</ele>
                <time>2016-06-25T09:24:59Z</time>
            </trkpt>
            <trkpt lon="100.968380" lat="12.899998">
                <ele>80.890000</ele>
                <time>2016-06-25T09:25:15Z</time>
            </trkpt>
            <trkpt lon="100.968074" lat="12.899875">
                <ele>84.250000</ele>
                <time>2016-06-25T09:25:28Z</time>
            </trkpt>
            <trkpt lon="100.967958" lat="12.900063">
                <ele>85.690000</ele>
                <time>2016-06-25T09:25:37Z</time>
            </trkpt>
            <trkpt lon="100.967876" lat="12.900425">
                <ele>83.290000</ele>
                <time>2016-06-25T09:25:51Z</time>
            </trkpt>
            <trkpt lon="100.967569" lat="12.900628">
                <ele>77.520000</ele>
                <time>2016-06-25T09:26:05Z</time>
            </trkpt>
            <trkpt lon="100.967232" lat="12.900514">
                <ele>77.040000</ele>
                <time>2016-06-25T09:26:16Z</time>
            </trkpt>
            <trkpt lon="100.967085" lat="12.900611">
                <ele>76.080000</ele>
                <time>2016-06-25T09:26:22Z</time>
            </trkpt>
            <trkpt lon="100.967472" lat="12.900810">
                <ele>73.680000</ele>
                <time>2016-06-25T09:26:40Z</time>
            </trkpt>
            <trkpt lon="100.967616" lat="12.900800">
                <ele>72.720000</ele>
                <time>2016-06-25T09:26:45Z</time>
            </trkpt>
            <trkpt lon="100.967914" lat="12.901119">
                <ele>72.240000</ele>
                <time>2016-06-25T09:27:00Z</time>
            </trkpt>
            <trkpt lon="100.968051" lat="12.901317">
                <ele>70.790000</ele>
                <time>2016-06-25T09:27:08Z</time>
            </trkpt>
            <trkpt lon="100.968125" lat="12.901203">
                <ele>69.830000</ele>
                <time>2016-06-25T09:27:14Z</time>
            </trkpt>
            <trkpt lon="100.968397" lat="12.900807">
                <ele>69.350000</ele>
                <time>2016-06-25T09:27:33Z</time>
            </trkpt>
            <trkpt lon="100.968543" lat="12.900736">
                <ele>71.760000</ele>
                <time>2016-06-25T09:27:43Z</time>
            </trkpt>
            <trkpt lon="100.968923" lat="12.900925">
                <ele>72.720000</ele>
                <time>2016-06-25T09:28:01Z</time>
            </trkpt>
            <trkpt lon="100.968430" lat="12.901206">
                <ele>76.560000</ele>
                <time>2016-06-25T09:28:27Z</time>
            </trkpt>
            <trkpt lon="100.968152" lat="12.901710">
                <ele>71.760000</ele>
                <time>2016-06-25T09:28:49Z</time>
            </trkpt>
            <trkpt lon="100.967343" lat="12.901888">
                <ele>71.760000</ele>
                <time>2016-06-25T09:29:24Z</time>
            </trkpt>
            <trkpt lon="100.966958" lat="12.901901">
                <ele>72.720000</ele>
                <time>2016-06-25T09:29:39Z</time>
            </trkpt>
            <trkpt lon="100.966702" lat="12.901722">
                <ele>72.720000</ele>
                <time>2016-06-25T09:29:51Z</time>
            </trkpt>
            <trkpt lon="100.966043" lat="12.902073">
                <ele>72.720000</ele>
                <time>2016-06-25T09:30:17Z</time>
            </trkpt>
            <trkpt lon="100.965813" lat="12.902387">
                <ele>72.720000</ele>
                <time>2016-06-25T09:30:30Z</time>
            </trkpt>
            <trkpt lon="100.965826" lat="12.902684">
                <ele>72.720000</ele>
                <time>2016-06-25T09:30:42Z</time>
            </trkpt>
            <trkpt lon="100.966189" lat="12.902910">
                <ele>76.080000</ele>
                <time>2016-06-25T09:30:58Z</time>
            </trkpt>
            <trkpt lon="100.966053" lat="12.903086">
                <ele>76.560000</ele>
                <time>2016-06-25T09:31:08Z</time>
            </trkpt>
            <trkpt lon="100.965871" lat="12.903386">
                <ele>73.680000</ele>
                <time>2016-06-25T09:31:21Z</time>
            </trkpt>
            <trkpt lon="100.965106" lat="12.903599">
                <ele>69.830000</ele>
                <time>2016-06-25T09:31:48Z</time>
            </trkpt>
            <trkpt lon="100.964777" lat="12.903569">
                <ele>69.830000</ele>
                <time>2016-06-25T09:31:58Z</time>
            </trkpt>
            <trkpt lon="100.964663" lat="12.903731">
                <ele>68.870000</ele>
                <time>2016-06-25T09:32:06Z</time>
            </trkpt>
            <trkpt lon="100.964576" lat="12.904006">
                <ele>67.910000</ele>
                <time>2016-06-25T09:32:18Z</time>
            </trkpt>
            <trkpt lon="100.964914" lat="12.904154">
                <ele>70.790000</ele>
                <time>2016-06-25T09:32:32Z</time>
            </trkpt>
            <trkpt lon="100.965491" lat="12.904144">
                <ele>73.200000</ele>
                <time>2016-06-25T09:32:54Z</time>
            </trkpt>
            <trkpt lon="100.965603" lat="12.904111">
                <ele>73.200000</ele>
                <time>2016-06-25T09:32:59Z</time>
            </trkpt>
            <trkpt lon="100.965401" lat="12.903961">
                <ele>70.790000</ele>
                <time>2016-06-25T09:33:11Z</time>
            </trkpt>
            <trkpt lon="100.965455" lat="12.903701">
                <ele>72.720000</ele>
                <time>2016-06-25T09:33:34Z</time>
            </trkpt>
            <trkpt lon="100.965606" lat="12.903624">
                <ele>72.720000</ele>
                <time>2016-06-25T09:34:02Z</time>
            </trkpt>
            <trkpt lon="100.965784" lat="12.903883">
                <ele>73.680000</ele>
                <time>2016-06-25T09:34:13Z</time>
            </trkpt>
            <trkpt lon="100.965841" lat="12.904016">
                <ele>73.680000</ele>
                <time>2016-06-25T09:34:18Z</time>
            </trkpt>
            <trkpt lon="100.965497" lat="12.904294">
                <ele>70.790000</ele>
                <time>2016-06-25T09:34:36Z</time>
            </trkpt>
            <trkpt lon="100.965182" lat="12.904149">
                <ele>72.720000</ele>
                <time>2016-06-25T09:34:50Z</time>
            </trkpt>
            <trkpt lon="100.965002" lat="12.904233">
                <ele>72.240000</ele>
                <time>2016-06-25T09:34:58Z</time>
            </trkpt>
            <trkpt lon="100.964659" lat="12.904528">
                <ele>70.310000</ele>
                <time>2016-06-25T09:35:15Z</time>
            </trkpt>
            <trkpt lon="100.964444" lat="12.904949">
                <ele>67.910000</ele>
                <time>2016-06-25T09:26:00Z</time>
            </trkpt>
            <trkpt lon="100.964726" lat="12.905039">
                <ele>67.430000</ele>
                <time>2016-06-25T09:26:11Z</time>
            </trkpt>
            <trkpt lon="100.964782" lat="12.905179">
                <ele>65.990000</ele>
                <time>2016-06-25T09:26:18Z</time>
            </trkpt>
            <trkpt lon="100.964815" lat="12.905350">
                <ele>64.070000</ele>
                <time>2016-06-25T09:26:22Z</time>
            </trkpt>
            <trkpt lon="100.964447" lat="12.905608">
                <ele>62.620000</ele>
                <time>2016-06-25T09:26:36Z</time>
            </trkpt>
            <trkpt lon="100.964418" lat="12.905779">
                <ele>61.660000</ele>
                <time>2016-06-25T09:26:40Z</time>
            </trkpt>
            <trkpt lon="100.964778" lat="12.906346">
                <ele>61.180000</ele>
                <time>2016-06-25T09:26:57Z</time>
            </trkpt>
            <trkpt lon="100.964661" lat="12.906570">
                <ele>58.300000</ele>
                <time>2016-06-25T09:27:02Z</time>
            </trkpt>
            <trkpt lon="100.963625" lat="12.908413">
                <ele>54.450000</ele>
                <time>2016-06-25T09:27:36Z</time>
            </trkpt>
            <trkpt lon="100.962519" lat="12.910226">
                <ele>55.410000</ele>
                <time>2016-06-25T09:28:23Z</time>
            </trkpt>
            <trkpt lon="100.962857" lat="12.909495">
                <ele>52.050000</ele>
                <time>2016-06-25T09:28:52Z</time>
            </trkpt>
            <trkpt lon="100.962240" lat="12.908886">
                <ele>51.570000</ele>
                <time>2016-06-25T09:29:13Z</time>
            </trkpt>
            <trkpt lon="100.959458" lat="12.908123">
                <ele>49.160000</ele>
                <time>2016-06-25T09:30:23Z</time>
            </trkpt>
            <trkpt lon="100.958370" lat="12.908013">
                <ele>48.680000</ele>
                <time>2016-06-25T09:30:47Z</time>
            </trkpt>
            <trkpt lon="100.958258" lat="12.907963">
                <ele>48.200000</ele>
                <time>2016-06-25T09:30:50Z</time>
            </trkpt>
            <trkpt lon="100.958317" lat="12.907368">
                <ele>47.720000</ele>
                <time>2016-06-25T09:31:07Z</time>
            </trkpt>
            <trkpt lon="100.957803" lat="12.906960">
                <ele>48.680000</ele>
                <time>2016-06-25T09:31:33Z</time>
            </trkpt>
            <trkpt lon="100.957498" lat="12.906966">
                <ele>48.200000</ele>
                <time>2016-06-25T09:31:43Z</time>
            </trkpt>
            <trkpt lon="100.957441" lat="12.906791">
                <ele>49.160000</ele>
                <time>2016-06-25T09:31:50Z</time>
            </trkpt>
            <trkpt lon="100.957644" lat="12.906493">
                <ele>51.570000</ele>
                <time>2016-06-25T09:32:06Z</time>
            </trkpt>
            <trkpt lon="100.957938" lat="12.906357">
                <ele>53.970000</ele>
                <time>2016-06-25T09:32:20Z</time>
            </trkpt>
            <trkpt lon="100.958307" lat="12.905162">
                <ele>57.820000</ele>
                <time>2016-06-25T09:33:11Z</time>
            </trkpt>
            <trkpt lon="100.958478" lat="12.904613">
                <ele>58.780000</ele>
                <time>2016-06-25T09:33:30Z</time>
            </trkpt>
            <trkpt lon="100.958431" lat="12.904136">
                <ele>58.780000</ele>
                <time>2016-06-25T09:33:45Z</time>
            </trkpt>
            <trkpt lon="100.957765" lat="12.903731">
                <ele>60.700000</ele>
                <time>2016-06-25T09:34:05Z</time>
            </trkpt>
            <trkpt lon="100.957298" lat="12.903692">
                <ele>59.740000</ele>
                <time>2016-06-25T09:34:15Z</time>
            </trkpt>
            <trkpt lon="100.957100" lat="12.903486">
                <ele>61.180000</ele>
                <time>2016-06-25T09:34:22Z</time>
            </trkpt>
            <trkpt lon="100.957031" lat="12.903039">
                <ele>60.700000</ele>
                <time>2016-06-25T09:34:33Z</time>
            </trkpt>
            <trkpt lon="100.956408" lat="12.902076">
                <ele>60.700000</ele>
                <time>2016-06-25T09:34:59Z</time>
            </trkpt>
            <trkpt lon="100.956066" lat="12.901892">
                <ele>61.660000</ele>
                <time>2016-06-25T09:35:12Z</time>
            </trkpt>
            <trkpt lon="100.955572" lat="12.902325">
                <ele>60.220000</ele>
                <time>2016-06-25T09:35:47Z</time>
            </trkpt>
            <trkpt lon="100.955120" lat="12.902459">
                <ele>59.740000</ele>
                <time>2016-06-25T09:35:57Z</time>
            </trkpt>
            <trkpt lon="100.955027" lat="12.902502">
                <ele>58.780000</ele>
                <time>2016-06-25T09:35:59Z</time>
            </trkpt>
            <trkpt lon="100.954623" lat="12.902737">
                <ele>59.740000</ele>
                <time>2016-06-25T09:36:07Z</time>
            </trkpt>
            <trkpt lon="100.954584" lat="12.902783">
                <ele>59.260000</ele>
                <time>2016-06-25T09:36:08Z</time>
            </trkpt>
            <trkpt lon="100.954147" lat="12.903647">
                <ele>56.860000</ele>
                <time>2016-06-25T09:36:23Z</time>
            </trkpt>
            <trkpt lon="100.952882" lat="12.904787">
                <ele>52.530000</ele>
                <time>2016-06-25T09:36:48Z</time>
            </trkpt>
            <trkpt lon="100.951996" lat="12.905837">
                <ele>47.720000</ele>
                <time>2016-06-25T09:37:07Z</time>
            </trkpt>
            <trkpt lon="100.951799" lat="12.906541">
                <ele>43.880000</ele>
                <time>2016-06-25T09:37:17Z</time>
            </trkpt>
            <trkpt lon="100.951406" lat="12.907750">
                <ele>42.920000</ele>
                <time>2016-06-25T09:37:35Z</time>
            </trkpt>
            <trkpt lon="100.950145" lat="12.909857">
                <ele>50.610000</ele>
                <time>2016-06-25T09:38:22Z</time>
            </trkpt>
            <trkpt lon="100.949809" lat="12.910258">
                <ele>51.570000</ele>
                <time>2016-06-25T09:38:34Z</time>
            </trkpt>
            <trkpt lon="100.948496" lat="12.911288">
                <ele>53.490000</ele>
                <time>2016-06-25T09:39:16Z</time>
            </trkpt>
            <trkpt lon="100.950456" lat="12.911950">
                <ele>57.340000</ele>
                <time>2016-06-25T09:40:26Z</time>
            </trkpt>
            <trkpt lon="100.950546" lat="12.912221">
                <ele>57.820000</ele>
                <time>2016-06-25T09:40:36Z</time>
            </trkpt>
            <trkpt lon="100.950425" lat="12.912513">
                <ele>58.780000</ele>
                <time>2016-06-25T09:40:46Z</time>
            </trkpt>
            <trkpt lon="100.950319" lat="12.912704">
                <ele>58.780000</ele>
                <time>2016-06-25T09:40:52Z</time>
            </trkpt>
            <trkpt lon="100.950540" lat="12.912846">
                <ele>59.740000</ele>
                <time>2016-06-25T09:41:02Z</time>
            </trkpt>
            <trkpt lon="100.951042" lat="12.913439">
                <ele>61.660000</ele>
                <time>2016-06-25T09:41:28Z</time>
            </trkpt>
            <trkpt lon="100.951392" lat="12.913610">
                <ele>62.620000</ele>
                <time>2016-06-25T09:41:41Z</time>
            </trkpt>
            <trkpt lon="100.951886" lat="12.913715">
                <ele>63.580000</ele>
                <time>2016-06-25T09:41:55Z</time>
            </trkpt>
            <trkpt lon="100.952771" lat="12.913918">
                <ele>65.030000</ele>
                <time>2016-06-25T09:42:18Z</time>
            </trkpt>
            <trkpt lon="100.953146" lat="12.913966">
                <ele>65.030000</ele>
                <time>2016-06-25T09:42:27Z</time>
            </trkpt>
            <trkpt lon="100.954453" lat="12.914583">
                <ele>66.950000</ele>
                <time>2016-06-25T09:42:59Z</time>
            </trkpt>
            <trkpt lon="100.955538" lat="12.915918">
                <ele>66.470000</ele>
                <time>2016-06-25T09:43:30Z</time>
            </trkpt>
            <trkpt lon="100.955728" lat="12.916972">
                <ele>66.950000</ele>
                <time>2016-06-25T09:43:49Z</time>
            </trkpt>
            <trkpt lon="100.956013" lat="12.918171">
                <ele>64.070000</ele>
                <time>2016-06-25T09:44:09Z</time>
            </trkpt>
            <trkpt lon="100.956074" lat="12.918237">
                <ele>64.550000</ele>
                <time>2016-06-25T09:44:11Z</time>
            </trkpt>
            <trkpt lon="100.957169" lat="12.918090">
                <ele>65.030000</ele>
                <time>2016-06-25T09:44:31Z</time>
            </trkpt>
            <trkpt lon="100.958190" lat="12.917438">
                <ele>65.030000</ele>
                <time>2016-06-25T09:44:51Z</time>
            </trkpt>
            <trkpt lon="100.958496" lat="12.917371">
                <ele>64.550000</ele>
                <time>2016-06-25T09:44:56Z</time>
            </trkpt>
            <trkpt lon="100.959570" lat="12.917156">
                <ele>62.140000</ele>
                <time>2016-06-25T09:45:11Z</time>
            </trkpt>
            <trkpt lon="100.960274" lat="12.916812">
                <ele>62.140000</ele>
                <time>2016-06-25T09:45:25Z</time>
            </trkpt>
            <trkpt lon="100.962185" lat="12.916512">
                <ele>63.580000</ele>
                <time>2016-06-25T09:46:30Z</time>
            </trkpt>
            <trkpt lon="100.962364" lat="12.916111">
                <ele>63.100000</ele>
                <time>2016-06-25T09:46:40Z</time>
            </trkpt>
            <trkpt lon="100.963021" lat="12.916143">
                <ele>65.030000</ele>
                <time>2016-06-25T09:47:06Z</time>
            </trkpt>
            <trkpt lon="100.962381" lat="12.916110">
                <ele>63.580000</ele>
                <time>2016-06-25T09:47:27Z</time>
            </trkpt>
            <trkpt lon="100.962553" lat="12.915608">
                <ele>64.070000</ele>
                <time>2016-06-25T09:47:40Z</time>
            </trkpt>
            <trkpt lon="100.965684" lat="12.915555">
                <ele>67.910000</ele>
                <time>2016-06-25T09:48:51Z</time>
            </trkpt>
            <trkpt lon="100.965870" lat="12.915835">
                <ele>68.870000</ele>
                <time>2016-06-25T09:49:04Z</time>
            </trkpt>
            <trkpt lon="100.966565" lat="12.915796">
                <ele>67.910000</ele>
                <time>2016-06-25T09:49:20Z</time>
            </trkpt>
            <trkpt lon="100.966717" lat="12.915672">
                <ele>66.470000</ele>
                <time>2016-06-25T09:49:25Z</time>
            </trkpt>
            <trkpt lon="100.966890" lat="12.915072">
                <ele>66.950000</ele>
                <time>2016-06-25T09:49:38Z</time>
            </trkpt>
            <trkpt lon="100.967097" lat="12.914884">
                <ele>65.510000</ele>
                <time>2016-06-25T09:49:44Z</time>
            </trkpt>
            <trkpt lon="100.967742" lat="12.914969">
                <ele>62.620000</ele>
                <time>2016-06-25T09:49:59Z</time>
            </trkpt>
            <trkpt lon="100.967926" lat="12.915708">
                <ele>61.660000</ele>
                <time>2016-06-25T09:50:14Z</time>
            </trkpt>
            <trkpt lon="100.968206" lat="12.915854">
                <ele>61.180000</ele>
                <time>2016-06-25T09:50:21Z</time>
            </trkpt>
            <trkpt lon="100.969086" lat="12.915725">
                <ele>58.300000</ele>
                <time>2016-06-25T09:50:39Z</time>
            </trkpt>
            <trkpt lon="100.969472" lat="12.915950">
                <ele>56.370000</ele>
                <time>2016-06-25T09:50:50Z</time>
            </trkpt>
            <trkpt lon="100.969904" lat="12.915654">
                <ele>57.340000</ele>
                <time>2016-06-25T09:51:01Z</time>
            </trkpt>
            <trkpt lon="100.971716" lat="12.915105">
                <ele>59.740000</ele>
                <time>2016-06-25T09:51:35Z</time>
            </trkpt>
            <trkpt lon="100.973010" lat="12.913769">
                <ele>61.180000</ele>
                <time>2016-06-25T09:52:07Z</time>
            </trkpt>
            <trkpt lon="100.973496" lat="12.913481">
                <ele>61.660000</ele>
                <time>2016-06-25T09:52:17Z</time>
            </trkpt>
            <trkpt lon="100.973569" lat="12.913399">
                <ele>61.180000</ele>
                <time>2016-06-25T09:52:19Z</time>
            </trkpt>
            <trkpt lon="100.973640" lat="12.913317">
                <ele>62.620000</ele>
                <time>2016-06-25T09:52:21Z</time>
            </trkpt>
            <trkpt lon="100.974598" lat="12.912197">
                <ele>63.580000</ele>
                <time>2016-06-25T09:52:48Z</time>
            </trkpt>
            <trkpt lon="100.975529" lat="12.912053">
                <ele>65.030000</ele>
                <time>2016-06-25T09:53:07Z</time>
            </trkpt>
            <trkpt lon="100.975660" lat="12.911964">
                <ele>65.030000</ele>
                <time>2016-06-25T09:53:15Z</time>
            </trkpt>
            <trkpt lon="100.974612" lat="12.912094">
                <ele>63.580000</ele>
                <time>2016-06-25T09:53:42Z</time>
            </trkpt>
            <trkpt lon="100.974574" lat="12.911383">
                <ele>63.100000</ele>
                <time>2016-06-25T09:53:56Z</time>
            </trkpt>
            <trkpt lon="100.974366" lat="12.910880">
                <ele>63.100000</ele>
                <time>2016-06-25T09:54:08Z</time>
            </trkpt>
            <trkpt lon="100.973765" lat="12.910182">
                <ele>64.550000</ele>
                <time>2016-06-25T09:54:24Z</time>
            </trkpt>
            <trkpt lon="100.973074" lat="12.909901">
                <ele>65.990000</ele>
                <time>2016-06-25T09:54:38Z</time>
            </trkpt>
            <trkpt lon="100.972856" lat="12.909896">
                <ele>65.030000</ele>
                <time>2016-06-25T09:54:43Z</time>
            </trkpt>
            <trkpt lon="100.972024" lat="12.907411">
                <ele>73.200000</ele>
                <time>2016-06-25T09:56:00Z</time>
            </trkpt>
            <trkpt lon="100.971973" lat="12.906959">
                <ele>74.160000</ele>
                <time>2016-06-25T09:56:14Z</time>
            </trkpt>
            <trkpt lon="100.972176" lat="12.906415">
                <ele>75.600000</ele>
                <time>2016-06-25T09:56:30Z</time>
            </trkpt>
            <trkpt lon="100.972735" lat="12.905680">
                <ele>75.600000</ele>
                <time>2016-06-25T09:56:50Z</time>
            </trkpt>
            <trkpt lon="100.972878" lat="12.904780">
                <ele>74.640000</ele>
                <time>2016-06-25T09:57:07Z</time>
            </trkpt>
            <trkpt lon="100.972914" lat="12.904675">
                <ele>73.680000</ele>
                <time>2016-06-25T09:57:09Z</time>
            </trkpt>
            <trkpt lon="100.973636" lat="12.904639">
                <ele>73.680000</ele>
                <time>2016-06-25T09:57:22Z</time>
            </trkpt>
            <trkpt lon="100.973996" lat="12.904787">
                <ele>73.680000</ele>
                <time>2016-06-25T09:57:29Z</time>
            </trkpt>
            <trkpt lon="100.974273" lat="12.905938">
                <ele>75.600000</ele>
                <time>2016-06-25T09:57:52Z</time>
            </trkpt>
            <trkpt lon="100.974337" lat="12.906098">
                <ele>75.600000</ele>
                <time>2016-06-25T09:57:56Z</time>
            </trkpt>
            <trkpt lon="100.974441" lat="12.906112">
                <ele>76.560000</ele>
                <time>2016-06-25T09:57:59Z</time>
            </trkpt>
            <trkpt lon="100.974603" lat="12.906027">
                <ele>76.080000</ele>
                <time>2016-06-25T09:58:10Z</time>
            </trkpt>
            <trkpt lon="100.974338" lat="12.906267">
                <ele>75.120000</ele>
                <time>2016-06-25T09:58:37Z</time>
            </trkpt>
            <trkpt lon="100.974616" lat="12.906024">
                <ele>75.120000</ele>
                <time>2016-06-25T09:59:00Z</time>
            </trkpt>
        </trkseg>
    </trk>
</gpx>